sensor_id;sensor_type;location;lat;lon;timestamp;P1;durP1;ratioP1;P2;durP2;ratioP2
28343;SDS011;15597;50.914;6.638;2023-10-31T00:00:24;4.05;;;1.80;;
28343;SDS011;15597;50.914;6.638;2023-10-31T00:02:50;4.00;;;2.20;;
28343;SDS011;15597;50.914;6.638;2023-10-31T00:05:15;3.85;;;1.38;;
28343;SDS011;15597;50.914;6.638;2023-10-31T00:07:41;3.60;;;1.92;;
28343;SDS011;15597;50.914;6.638;2023-10-31T00:10:06;3.83;;;2.00;;
28343;SDS011;15597;50.914;6.638;2023-10-31T00:12:32;3.92;;;1.75;;
28343;SDS011;15597;50.914;6.638;2023-10-31T00:14:58;4.18;;;1.83;;
28343;SDS011;15597;50.914;6.638;2023-10-31T00:17:23;3.45;;;1.77;;
28343;SDS011;15597;50.914;6.638;2023-10-31T00:19:49;3.45;;;1.80;;
28343;SDS011;15597;50.914;6.638;2023-10-31T00:22:14;3.35;;;1.60;;
28343;SDS011;15597;50.914;6.638;2023-10-31T00:24:39;3.63;;;1.50;;
28343;SDS011;15597;50.914;6.638;2023-10-31T00:27:05;4.18;;;1.65;;
28343;SDS011;15597;50.914;6.638;2023-10-31T00:29:30;3.63;;;1.80;;
28343;SDS011;15597;50.914;6.638;2023-10-31T00:31:56;3.78;;;1.55;;
28343;SDS011;15597;50.914;6.638;2023-10-31T00:34:21;3.85;;;1.40;;
28343;SDS011;15597;50.914;6.638;2023-10-31T00:36:47;4.57;;;1.67;;
28343;SDS011;15597;50.914;6.638;2023-10-31T00:39:12;3.92;;;1.48;;
28343;SDS011;15597;50.914;6.638;2023-10-31T00:41:39;4.55;;;1.65;;
28343;SDS011;15597;50.914;6.638;2023-10-31T00:44:09;3.38;;;1.40;;
28343;SDS011;15597;50.914;6.638;2023-10-31T00:46:35;5.80;;;1.45;;
28343;SDS011;15597;50.914;6.638;2023-10-31T00:49:01;3.15;;;1.30;;
28343;SDS011;15597;50.914;6.638;2023-10-31T00:51:27;4.00;;;1.50;;
28343;SDS011;15597;50.914;6.638;2023-10-31T00:53:52;5.85;;;1.50;;
28343;SDS011;15597;50.914;6.638;2023-10-31T00:56:18;3.95;;;1.70;;
28343;SDS011;15597;50.914;6.638;2023-10-31T00:58:43;4.03;;;1.20;;
28343;SDS011;15597;50.914;6.638;2023-10-31T01:01:09;3.38;;;1.20;;
28343;SDS011;15597;50.914;6.638;2023-10-31T01:03:34;5.10;;;1.50;;
28343;SDS011;15597;50.914;6.638;2023-10-31T01:06:00;4.60;;;1.27;;
28343;SDS011;15597;50.914;6.638;2023-10-31T01:08:25;3.13;;;1.23;;
28343;SDS011;15597;50.914;6.638;2023-10-31T01:10:52;3.88;;;1.15;;
28343;SDS011;15597;50.914;6.638;2023-10-31T01:13:17;3.88;;;1.30;;
28343;SDS011;15597;50.914;6.638;2023-10-31T01:15:43;2.75;;;1.02;;
28343;SDS011;15597;50.914;6.638;2023-10-31T01:18:09;3.42;;;1.20;;
28343;SDS011;15597;50.914;6.638;2023-10-31T01:20:35;3.60;;;1.40;;
28343;SDS011;15597;50.914;6.638;2023-10-31T01:23:00;5.13;;;1.40;;
28343;SDS011;15597;50.914;6.638;2023-10-31T01:25:26;4.50;;;1.10;;
28343;SDS011;15597;50.914;6.638;2023-10-31T01:27:52;3.00;;;1.10;;
28343;SDS011;15597;50.914;6.638;2023-10-31T01:30:17;4.07;;;1.20;;
28343;SDS011;15597;50.914;6.638;2023-10-31T01:32:43;2.90;;;1.02;;
28343;SDS011;15597;50.914;6.638;2023-10-31T01:35:09;3.20;;;1.00;;
28343;SDS011;15597;50.914;6.638;2023-10-31T01:37:34;3.10;;;0.90;;
28343;SDS011;15597;50.914;6.638;2023-10-31T01:40:00;3.92;;;1.10;;
28343;SDS011;15597;50.914;6.638;2023-10-31T01:42:25;3.17;;;0.90;;
28343;SDS011;15597;50.914;6.638;2023-10-31T01:44:51;3.35;;;1.10;;
28343;SDS011;15597;50.914;6.638;2023-10-31T01:47:17;2.70;;;1.00;;
28343;SDS011;15597;50.914;6.638;2023-10-31T01:49:43;2.72;;;1.00;;
28343;SDS011;15597;50.914;6.638;2023-10-31T01:52:09;3.67;;;1.10;;
28343;SDS011;15597;50.914;6.638;2023-10-31T01:54:35;3.33;;;1.10;;
28343;SDS011;15597;50.914;6.638;2023-10-31T01:57:01;3.22;;;1.20;;
28343;SDS011;15597;50.914;6.638;2023-10-31T01:59:29;2.13;;;0.90;;
28343;SDS011;15597;50.914;6.638;2023-10-31T02:01:55;2.60;;;0.90;;
28343;SDS011;15597;50.914;6.638;2023-10-31T02:04:25;3.67;;;1.10;;
28343;SDS011;15597;50.914;6.638;2023-10-31T02:06:51;4.03;;;1.00;;
28343;SDS011;15597;50.914;6.638;2023-10-31T02:09:18;4.13;;;1.02;;
28343;SDS011;15597;50.914;6.638;2023-10-31T02:11:44;4.22;;;1.20;;
28343;SDS011;15597;50.914;6.638;2023-10-31T02:14:09;2.88;;;1.10;;
28343;SDS011;15597;50.914;6.638;2023-10-31T02:16:35;2.25;;;0.80;;
28343;SDS011;15597;50.914;6.638;2023-10-31T02:19:01;5.80;;;1.38;;
28343;SDS011;15597;50.914;6.638;2023-10-31T02:21:27;3.30;;;1.10;;
28343;SDS011;15597;50.914;6.638;2023-10-31T02:23:58;5.88;;;1.15;;
28343;SDS011;15597;50.914;6.638;2023-10-31T02:26:29;3.50;;;1.10;;
28343;SDS011;15597;50.914;6.638;2023-10-31T02:28:55;3.42;;;1.00;;
28343;SDS011;15597;50.914;6.638;2023-10-31T02:31:21;3.45;;;1.10;;
28343;SDS011;15597;50.914;6.638;2023-10-31T02:33:47;3.08;;;0.95;;
28343;SDS011;15597;50.914;6.638;2023-10-31T02:36:12;4.72;;;1.13;;
28343;SDS011;15597;50.914;6.638;2023-10-31T02:38:39;4.32;;;1.23;;
28343;SDS011;15597;50.914;6.638;2023-10-31T02:41:04;4.13;;;1.15;;
28343;SDS011;15597;50.914;6.638;2023-10-31T02:43:30;3.63;;;1.10;;
28343;SDS011;15597;50.914;6.638;2023-10-31T02:45:56;3.13;;;1.08;;
28343;SDS011;15597;50.914;6.638;2023-10-31T02:48:21;3.05;;;0.93;;
28343;SDS011;15597;50.914;6.638;2023-10-31T02:50:49;2.92;;;0.90;;
28343;SDS011;15597;50.914;6.638;2023-10-31T02:53:14;3.45;;;1.10;;
28343;SDS011;15597;50.914;6.638;2023-10-31T02:55:40;2.47;;;1.02;;
28343;SDS011;15597;50.914;6.638;2023-10-31T02:58:05;3.03;;;1.15;;
28343;SDS011;15597;50.914;6.638;2023-10-31T03:00:31;2.70;;;1.00;;
28343;SDS011;15597;50.914;6.638;2023-10-31T03:02:56;3.28;;;1.10;;
28343;SDS011;15597;50.914;6.638;2023-10-31T03:05:22;2.15;;;0.90;;
28343;SDS011;15597;50.914;6.638;2023-10-31T03:07:49;3.15;;;1.00;;
28343;SDS011;15597;50.914;6.638;2023-10-31T03:10:14;2.67;;;0.82;;
28343;SDS011;15597;50.914;6.638;2023-10-31T03:12:40;3.65;;;1.35;;
28343;SDS011;15597;50.914;6.638;2023-10-31T03:15:06;3.10;;;1.20;;
28343;SDS011;15597;50.914;6.638;2023-10-31T03:17:32;3.30;;;1.00;;
28343;SDS011;15597;50.914;6.638;2023-10-31T03:19:58;2.80;;;1.10;;
28343;SDS011;15597;50.914;6.638;2023-10-31T03:22:25;2.45;;;1.00;;
28343;SDS011;15597;50.914;6.638;2023-10-31T03:24:50;2.45;;;1.10;;
28343;SDS011;15597;50.914;6.638;2023-10-31T03:27:16;3.80;;;1.00;;
28343;SDS011;15597;50.914;6.638;2023-10-31T03:29:42;3.83;;;1.00;;
28343;SDS011;15597;50.914;6.638;2023-10-31T03:32:07;3.20;;;0.90;;
28343;SDS011;15597;50.914;6.638;2023-10-31T03:34:33;2.83;;;1.02;;
28343;SDS011;15597;50.914;6.638;2023-10-31T03:36:59;2.55;;;0.80;;
28343;SDS011;15597;50.914;6.638;2023-10-31T03:39:24;2.58;;;0.90;;
28343;SDS011;15597;50.914;6.638;2023-10-31T03:41:50;1.90;;;0.90;;
28343;SDS011;15597;50.914;6.638;2023-10-31T03:44:15;3.30;;;1.10;;
28343;SDS011;15597;50.914;6.638;2023-10-31T03:46:41;3.33;;;0.90;;
28343;SDS011;15597;50.914;6.638;2023-10-31T03:49:06;2.55;;;0.85;;
28343;SDS011;15597;50.914;6.638;2023-10-31T03:51:33;3.22;;;0.88;;
28343;SDS011;15597;50.914;6.638;2023-10-31T03:53:59;1.85;;;0.77;;
28343;SDS011;15597;50.914;6.638;2023-10-31T03:56:24;1.80;;;0.70;;
28343;SDS011;15597;50.914;6.638;2023-10-31T03:58:50;3.20;;;0.90;;
28343;SDS011;15597;50.914;6.638;2023-10-31T04:01:16;2.25;;;0.80;;
28343;SDS011;15597;50.914;6.638;2023-10-31T04:03:41;2.92;;;0.98;;
28343;SDS011;15597;50.914;6.638;2023-10-31T04:06:07;1.70;;;0.70;;
28343;SDS011;15597;50.914;6.638;2023-10-31T04:08:33;3.00;;;0.90;;
28343;SDS011;15597;50.914;6.638;2023-10-31T04:10:59;3.45;;;0.95;;
28343;SDS011;15597;50.914;6.638;2023-10-31T04:13:24;2.00;;;0.90;;
28343;SDS011;15597;50.914;6.638;2023-10-31T04:15:50;3.22;;;0.88;;
28343;SDS011;15597;50.914;6.638;2023-10-31T04:18:16;2.15;;;0.70;;
28343;SDS011;15597;50.914;6.638;2023-10-31T04:20:42;5.22;;;0.90;;
28343;SDS011;15597;50.914;6.638;2023-10-31T04:23:07;2.85;;;0.98;;
28343;SDS011;15597;50.914;6.638;2023-10-31T04:25:33;2.35;;;0.70;;
28343;SDS011;15597;50.914;6.638;2023-10-31T04:27:59;2.25;;;0.85;;
28343;SDS011;15597;50.914;6.638;2023-10-31T04:30:25;3.00;;;1.02;;
28343;SDS011;15597;50.914;6.638;2023-10-31T04:32:51;2.42;;;0.90;;
28343;SDS011;15597;50.914;6.638;2023-10-31T04:35:17;3.03;;;1.05;;
28343;SDS011;15597;50.914;6.638;2023-10-31T04:37:42;2.70;;;0.80;;
28343;SDS011;15597;50.914;6.638;2023-10-31T04:40:08;3.75;;;0.98;;
28343;SDS011;15597;50.914;6.638;2023-10-31T04:42:34;2.17;;;0.80;;
28343;SDS011;15597;50.914;6.638;2023-10-31T04:45:00;2.03;;;0.80;;
28343;SDS011;15597;50.914;6.638;2023-10-31T04:47:25;3.50;;;0.80;;
28343;SDS011;15597;50.914;6.638;2023-10-31T04:49:51;1.73;;;0.85;;
28343;SDS011;15597;50.914;6.638;2023-10-31T04:52:17;2.53;;;0.98;;
28343;SDS011;15597;50.914;6.638;2023-10-31T04:54:43;2.47;;;0.90;;
28343;SDS011;15597;50.914;6.638;2023-10-31T04:57:08;2.83;;;1.10;;
28343;SDS011;15597;50.914;6.638;2023-10-31T04:59:34;2.08;;;0.82;;
28343;SDS011;15597;50.914;6.638;2023-10-31T05:01:59;2.45;;;0.90;;
28343;SDS011;15597;50.914;6.638;2023-10-31T05:04:25;3.05;;;1.05;;
28343;SDS011;15597;50.914;6.638;2023-10-31T05:06:51;2.33;;;1.10;;
28343;SDS011;15597;50.914;6.638;2023-10-31T05:09:16;2.22;;;0.90;;
28343;SDS011;15597;50.914;6.638;2023-10-31T05:11:43;3.35;;;1.10;;
28343;SDS011;15597;50.914;6.638;2023-10-31T05:14:09;2.67;;;0.95;;
28343;SDS011;15597;50.914;6.638;2023-10-31T05:16:39;1.70;;;0.82;;
28343;SDS011;15597;50.914;6.638;2023-10-31T05:19:05;3.67;;;1.00;;
28343;SDS011;15597;50.914;6.638;2023-10-31T05:21:31;3.45;;;0.93;;
28343;SDS011;15597;50.914;6.638;2023-10-31T05:23:57;4.97;;;1.00;;
28343;SDS011;15597;50.914;6.638;2023-10-31T05:26:22;3.15;;;1.02;;
28343;SDS011;15597;50.914;6.638;2023-10-31T05:28:48;2.35;;;0.90;;
28343;SDS011;15597;50.914;6.638;2023-10-31T05:31:17;2.20;;;0.93;;
28343;SDS011;15597;50.914;6.638;2023-10-31T05:33:43;2.55;;;1.00;;
28343;SDS011;15597;50.914;6.638;2023-10-31T05:36:21;4.15;;;1.13;;
28343;SDS011;15597;50.914;6.638;2023-10-31T05:38:50;2.58;;;1.08;;
28343;SDS011;15597;50.914;6.638;2023-10-31T05:41:16;3.58;;;1.17;;
28343;SDS011;15597;50.914;6.638;2023-10-31T05:43:41;2.03;;;1.00;;
28343;SDS011;15597;50.914;6.638;2023-10-31T05:46:07;2.45;;;0.75;;
28343;SDS011;15597;50.914;6.638;2023-10-31T05:48:39;2.45;;;0.80;;
28343;SDS011;15597;50.914;6.638;2023-10-31T05:51:15;2.92;;;0.82;;
28343;SDS011;15597;50.914;6.638;2023-10-31T05:53:42;1.90;;;0.88;;
28343;SDS011;15597;50.914;6.638;2023-10-31T05:56:09;3.38;;;1.15;;
28343;SDS011;15597;50.914;6.638;2023-10-31T05:58:36;2.50;;;1.10;;
28343;SDS011;15597;50.914;6.638;2023-10-31T06:01:02;2.60;;;1.17;;
28343;SDS011;15597;50.914;6.638;2023-10-31T06:03:28;2.42;;;1.10;;
28343;SDS011;15597;50.914;6.638;2023-10-31T06:05:54;2.67;;;1.27;;
28343;SDS011;15597;50.914;6.638;2023-10-31T06:08:19;2.55;;;1.05;;
28343;SDS011;15597;50.914;6.638;2023-10-31T06:10:45;2.33;;;1.10;;
28343;SDS011;15597;50.914;6.638;2023-10-31T06:13:10;3.08;;;1.20;;
28343;SDS011;15597;50.914;6.638;2023-10-31T06:15:37;3.22;;;1.08;;
28343;SDS011;15597;50.914;6.638;2023-10-31T06:18:02;2.45;;;1.00;;
28343;SDS011;15597;50.914;6.638;2023-10-31T06:20:28;3.95;;;1.17;;
28343;SDS011;15597;50.914;6.638;2023-10-31T06:22:54;3.30;;;1.45;;
28343;SDS011;15597;50.914;6.638;2023-10-31T06:25:19;4.10;;;1.27;;
28343;SDS011;15597;50.914;6.638;2023-10-31T06:27:45;3.13;;;1.40;;
28343;SDS011;15597;50.914;6.638;2023-10-31T06:30:10;3.63;;;1.40;;
28343;SDS011;15597;50.914;6.638;2023-10-31T06:32:36;3.63;;;1.33;;
28343;SDS011;15597;50.914;6.638;2023-10-31T06:35:05;3.22;;;1.35;;
28343;SDS011;15597;50.914;6.638;2023-10-31T06:37:31;3.15;;;1.48;;
28343;SDS011;15597;50.914;6.638;2023-10-31T06:39:56;3.38;;;1.20;;
28343;SDS011;15597;50.914;6.638;2023-10-31T06:42:22;2.53;;;1.15;;
28343;SDS011;15597;50.914;6.638;2023-10-31T06:44:47;3.60;;;1.35;;
28343;SDS011;15597;50.914;6.638;2023-10-31T06:47:13;3.03;;;1.30;;
28343;SDS011;15597;50.914;6.638;2023-10-31T06:49:39;3.03;;;1.30;;
28343;SDS011;15597;50.914;6.638;2023-10-31T06:52:05;3.30;;;1.20;;
28343;SDS011;15597;50.914;6.638;2023-10-31T06:54:30;2.58;;;1.20;;
28343;SDS011;15597;50.914;6.638;2023-10-31T06:56:56;3.88;;;1.40;;
28343;SDS011;15597;50.914;6.638;2023-10-31T06:59:22;5.32;;;1.30;;
28343;SDS011;15597;50.914;6.638;2023-10-31T07:01:48;3.05;;;1.23;;
28343;SDS011;15597;50.914;6.638;2023-10-31T07:04:13;2.65;;;1.00;;
28343;SDS011;15597;50.914;6.638;2023-10-31T07:06:39;4.13;;;1.40;;
28343;SDS011;15597;50.914;6.638;2023-10-31T07:09:04;3.25;;;1.02;;
28343;SDS011;15597;50.914;6.638;2023-10-31T07:11:31;2.83;;;1.13;;
28343;SDS011;15597;50.914;6.638;2023-10-31T07:14:01;2.20;;;1.05;;
28343;SDS011;15597;50.914;6.638;2023-10-31T07:16:27;4.25;;;1.58;;
28343;SDS011;15597;50.914;6.638;2023-10-31T07:18:53;3.47;;;1.10;;
28343;SDS011;15597;50.914;6.638;2023-10-31T07:21:19;3.75;;;1.23;;
28343;SDS011;15597;50.914;6.638;2023-10-31T07:23:44;3.30;;;1.48;;
28343;SDS011;15597;50.914;6.638;2023-10-31T07:26:10;3.28;;;1.25;;
28343;SDS011;15597;50.914;6.638;2023-10-31T07:28:36;4.25;;;1.50;;
28343;SDS011;15597;50.914;6.638;2023-10-31T07:31:01;4.20;;;1.50;;
28343;SDS011;15597;50.914;6.638;2023-10-31T07:33:27;2.40;;;1.20;;
28343;SDS011;15597;50.914;6.638;2023-10-31T07:35:53;3.95;;;1.10;;
28343;SDS011;15597;50.914;6.638;2023-10-31T07:38:18;3.45;;;1.20;;
28343;SDS011;15597;50.914;6.638;2023-10-31T07:40:44;4.25;;;1.50;;
28343;SDS011;15597;50.914;6.638;2023-10-31T07:43:09;2.97;;;1.40;;
28343;SDS011;15597;50.914;6.638;2023-10-31T07:45:36;3.25;;;1.48;;
28343;SDS011;15597;50.914;6.638;2023-10-31T07:48:01;3.30;;;1.38;;
28343;SDS011;15597;50.914;6.638;2023-10-31T07:50:27;4.65;;;1.55;;
28343;SDS011;15597;50.914;6.638;2023-10-31T07:52:52;1.83;;;0.93;;
28343;SDS011;15597;50.914;6.638;2023-10-31T07:55:18;2.97;;;1.30;;
28343;SDS011;15597;50.914;6.638;2023-10-31T07:57:44;2.30;;;1.17;;
28343;SDS011;15597;50.914;6.638;2023-10-31T08:00:10;3.25;;;1.10;;
28343;SDS011;15597;50.914;6.638;2023-10-31T08:02:40;2.40;;;1.00;;
28343;SDS011;15597;50.914;6.638;2023-10-31T08:05:06;4.20;;;1.60;;
28343;SDS011;15597;50.914;6.638;2023-10-31T08:07:32;4.13;;;1.70;;
28343;SDS011;15597;50.914;6.638;2023-10-31T08:09:58;3.25;;;1.27;;
28343;SDS011;15597;50.914;6.638;2023-10-31T08:12:24;3.75;;;1.77;;
28343;SDS011;15597;50.914;6.638;2023-10-31T08:14:49;3.53;;;1.83;;
28343;SDS011;15597;50.914;6.638;2023-10-31T08:17:15;5.65;;;1.92;;
28343;SDS011;15597;50.914;6.638;2023-10-31T08:19:40;3.03;;;1.40;;
28343;SDS011;15597;50.914;6.638;2023-10-31T08:22:06;3.60;;;1.30;;
28343;SDS011;15597;50.914;6.638;2023-10-31T08:24:32;3.13;;;1.50;;
28343;SDS011;15597;50.914;6.638;2023-10-31T08:26:59;4.97;;;1.83;;
28343;SDS011;15597;50.914;6.638;2023-10-31T08:29:25;3.72;;;1.23;;
28343;SDS011;15597;50.914;6.638;2023-10-31T08:31:50;3.70;;;1.67;;
28343;SDS011;15597;50.914;6.638;2023-10-31T08:34:16;5.35;;;2.30;;
28343;SDS011;15597;50.914;6.638;2023-10-31T08:36:41;2.90;;;1.42;;
28343;SDS011;15597;50.914;6.638;2023-10-31T08:39:07;3.15;;;1.40;;
28343;SDS011;15597;50.914;6.638;2023-10-31T08:41:33;4.10;;;1.60;;
28343;SDS011;15597;50.914;6.638;2023-10-31T08:43:58;5.88;;;2.17;;
28343;SDS011;15597;50.914;6.638;2023-10-31T08:46:26;6.03;;;1.90;;
28343;SDS011;15597;50.914;6.638;2023-10-31T08:48:52;4.03;;;1.38;;
28343;SDS011;15597;50.914;6.638;2023-10-31T08:51:17;3.85;;;1.77;;
28343;SDS011;15597;50.914;6.638;2023-10-31T08:53:43;5.07;;;2.47;;
28343;SDS011;15597;50.914;6.638;2023-10-31T08:56:08;4.35;;;1.70;;
28343;SDS011;15597;50.914;6.638;2023-10-31T08:58:34;3.47;;;1.63;;
28343;SDS011;15597;50.914;6.638;2023-10-31T09:00:59;5.88;;;2.80;;
28343;SDS011;15597;50.914;6.638;2023-10-31T09:03:25;4.25;;;1.90;;
28343;SDS011;15597;50.914;6.638;2023-10-31T09:05:50;6.68;;;1.52;;
28343;SDS011;15597;50.914;6.638;2023-10-31T09:08:16;2.75;;;1.13;;
28343;SDS011;15597;50.914;6.638;2023-10-31T09:10:41;5.70;;;1.80;;
28343;SDS011;15597;50.914;6.638;2023-10-31T09:13:11;4.20;;;1.60;;
28343;SDS011;15597;50.914;6.638;2023-10-31T09:15:36;3.22;;;1.23;;
28343;SDS011;15597;50.914;6.638;2023-10-31T09:18:02;2.53;;;1.15;;
28343;SDS011;15597;50.914;6.638;2023-10-31T09:20:28;2.85;;;1.23;;
28343;SDS011;15597;50.914;6.638;2023-10-31T09:22:54;4.75;;;1.80;;
28343;SDS011;15597;50.914;6.638;2023-10-31T09:25:20;4.97;;;1.85;;
28343;SDS011;15597;50.914;6.638;2023-10-31T09:27:46;2.95;;;1.02;;
28343;SDS011;15597;50.914;6.638;2023-10-31T09:30:11;2.25;;;1.00;;
28343;SDS011;15597;50.914;6.638;2023-10-31T09:32:37;2.88;;;1.20;;
28343;SDS011;15597;50.914;6.638;2023-10-31T09:35:02;2.72;;;1.00;;
28343;SDS011;15597;50.914;6.638;2023-10-31T09:37:28;2.80;;;1.10;;
28343;SDS011;15597;50.914;6.638;2023-10-31T09:39:54;2.45;;;1.08;;
28343;SDS011;15597;50.914;6.638;2023-10-31T09:42:19;3.55;;;1.35;;
28343;SDS011;15597;50.914;6.638;2023-10-31T09:44:45;3.40;;;1.30;;
28343;SDS011;15597;50.914;6.638;2023-10-31T09:47:10;2.60;;;1.08;;
28343;SDS011;15597;50.914;6.638;2023-10-31T09:49:37;4.40;;;1.58;;
28343;SDS011;15597;50.914;6.638;2023-10-31T09:52:02;3.58;;;1.60;;
28343;SDS011;15597;50.914;6.638;2023-10-31T09:54:28;4.68;;;1.67;;
28343;SDS011;15597;50.914;6.638;2023-10-31T09:56:55;3.40;;;1.52;;
28343;SDS011;15597;50.914;6.638;2023-10-31T09:59:20;2.50;;;1.10;;
28343;SDS011;15597;50.914;6.638;2023-10-31T10:01:46;3.63;;;1.52;;
28343;SDS011;15597;50.914;6.638;2023-10-31T10:04:12;4.68;;;1.30;;
28343;SDS011;15597;50.914;6.638;2023-10-31T10:07:20;2.25;;;1.00;;
28343;SDS011;15597;50.914;6.638;2023-10-31T10:09:27;2.33;;;1.00;;
28343;SDS011;15597;50.914;6.638;2023-10-31T10:11:53;3.38;;;1.10;;
28343;SDS011;15597;50.914;6.638;2023-10-31T10:14:20;3.80;;;1.40;;
28343;SDS011;15597;50.914;6.638;2023-10-31T10:16:48;2.67;;;1.00;;
28343;SDS011;15597;50.914;6.638;2023-10-31T10:19:18;3.55;;;1.17;;
28343;SDS011;15597;50.914;6.638;2023-10-31T10:21:46;3.17;;;1.10;;
28343;SDS011;15597;50.914;6.638;2023-10-31T10:24:16;5.65;;;1.20;;
28343;SDS011;15597;50.914;6.638;2023-10-31T10:26:43;3.47;;;1.00;;
28343;SDS011;15597;50.914;6.638;2023-10-31T10:29:08;3.08;;;1.00;;
28343;SDS011;15597;50.914;6.638;2023-10-31T10:31:34;2.40;;;1.05;;
28343;SDS011;15597;50.914;6.638;2023-10-31T10:34:00;2.72;;;1.10;;
28343;SDS011;15597;50.914;6.638;2023-10-31T10:36:26;2.45;;;1.10;;
28343;SDS011;15597;50.914;6.638;2023-10-31T10:38:55;4.28;;;1.08;;
28343;SDS011;15597;50.914;6.638;2023-10-31T10:41:26;2.80;;;0.98;;
28343;SDS011;15597;50.914;6.638;2023-10-31T10:43:56;3.55;;;1.20;;
28343;SDS011;15597;50.914;6.638;2023-10-31T10:46:28;2.65;;;1.00;;
28343;SDS011;15597;50.914;6.638;2023-10-31T10:48:59;3.03;;;1.10;;
28343;SDS011;15597;50.914;6.638;2023-10-31T10:51:28;2.75;;;1.17;;
28343;SDS011;15597;50.914;6.638;2023-10-31T10:56:30;3.83;;;1.00;;
28343;SDS011;15597;50.914;6.638;2023-10-31T10:59:03;2.67;;;0.98;;
28343;SDS011;15597;50.914;6.638;2023-10-31T11:01:39;2.97;;;1.10;;
28343;SDS011;15597;50.914;6.638;2023-10-31T11:04:07;2.75;;;0.95;;
28343;SDS011;15597;50.914;6.638;2023-10-31T11:06:33;2.40;;;1.10;;
28343;SDS011;15597;50.914;6.638;2023-10-31T11:09:00;6.40;;;1.35;;
28343;SDS011;15597;50.914;6.638;2023-10-31T11:11:26;3.05;;;1.10;;
28343;SDS011;15597;50.914;6.638;2023-10-31T11:13:52;4.95;;;1.30;;
28343;SDS011;15597;50.914;6.638;2023-10-31T11:16:23;2.90;;;1.10;;
28343;SDS011;15597;50.914;6.638;2023-10-31T11:18:55;3.67;;;1.20;;
28343;SDS011;15597;50.914;6.638;2023-10-31T11:21:22;3.08;;;0.93;;
28343;SDS011;15597;50.914;6.638;2023-10-31T11:23:56;2.30;;;1.02;;
28343;SDS011;15597;50.914;6.638;2023-10-31T11:26:26;2.83;;;0.93;;
28343;SDS011;15597;50.914;6.638;2023-10-31T11:28:52;3.92;;;1.10;;
28343;SDS011;15597;50.914;6.638;2023-10-31T11:31:28;3.20;;;1.05;;
28343;SDS011;15597;50.914;6.638;2023-10-31T11:33:54;2.67;;;0.95;;
28343;SDS011;15597;50.914;6.638;2023-10-31T11:36:20;2.85;;;1.00;;
28343;SDS011;15597;50.914;6.638;2023-10-31T11:38:45;3.20;;;1.20;;
28343;SDS011;15597;50.914;6.638;2023-10-31T11:41:11;2.72;;;0.88;;
28343;SDS011;15597;50.914;6.638;2023-10-31T11:46:05;2.13;;;0.90;;
28343;SDS011;15597;50.914;6.638;2023-10-31T11:48:45;3.42;;;1.20;;
28343;SDS011;15597;50.914;6.638;2023-10-31T11:51:18;7.93;;;1.40;;
28343;SDS011;15597;50.914;6.638;2023-10-31T11:53:44;1.85;;;0.80;;
28343;SDS011;15597;50.914;6.638;2023-10-31T11:56:18;3.22;;;0.98;;
28343;SDS011;15597;50.914;6.638;2023-10-31T11:58:54;5.00;;;1.08;;
28343;SDS011;15597;50.914;6.638;2023-10-31T12:01:29;1.83;;;0.90;;
28343;SDS011;15597;50.914;6.638;2023-10-31T12:03:55;1.70;;;0.80;;
28343;SDS011;15597;50.914;6.638;2023-10-31T12:06:21;2.03;;;0.82;;
28343;SDS011;15597;50.914;6.638;2023-10-31T12:08:47;3.40;;;0.90;;
28343;SDS011;15597;50.914;6.638;2023-10-31T12:13:51;2.15;;;0.80;;
28343;SDS011;15597;50.914;6.638;2023-10-31T12:16:28;4.13;;;1.00;;
28343;SDS011;15597;50.914;6.638;2023-10-31T12:18:58;4.13;;;1.20;;
28343;SDS011;15597;50.914;6.638;2023-10-31T12:21:34;2.80;;;1.00;;
28343;SDS011;15597;50.914;6.638;2023-10-31T12:24:05;2.72;;;0.93;;
28343;SDS011;15597;50.914;6.638;2023-10-31T12:26:32;3.78;;;1.00;;
28343;SDS011;15597;50.914;6.638;2023-10-31T12:29:12;5.60;;;1.27;;
28343;SDS011;15597;50.914;6.638;2023-10-31T12:31:40;2.75;;;0.90;;
28343;SDS011;15597;50.914;6.638;2023-10-31T12:34:08;2.70;;;0.93;;
28343;SDS011;15597;50.914;6.638;2023-10-31T12:36:35;4.60;;;1.10;;
28343;SDS011;15597;50.914;6.638;2023-10-31T12:39:01;3.13;;;1.02;;
28343;SDS011;15597;50.914;6.638;2023-10-31T12:41:28;5.07;;;1.10;;
28343;SDS011;15597;50.914;6.638;2023-10-31T12:43:54;3.78;;;1.13;;
28343;SDS011;15597;50.914;6.638;2023-10-31T12:46:23;2.38;;;0.75;;
28343;SDS011;15597;50.914;6.638;2023-10-31T12:48:50;3.22;;;0.98;;
28343;SDS011;15597;50.914;6.638;2023-10-31T12:51:16;2.40;;;0.80;;
28343;SDS011;15597;50.914;6.638;2023-10-31T12:53:41;3.97;;;1.02;;
28343;SDS011;15597;50.914;6.638;2023-10-31T12:56:07;5.60;;;1.00;;
28343;SDS011;15597;50.914;6.638;2023-10-31T12:58:33;3.83;;;0.90;;
28343;SDS011;15597;50.914;6.638;2023-10-31T13:00:59;4.40;;;1.30;;
28343;SDS011;15597;50.914;6.638;2023-10-31T13:03:25;4.05;;;1.00;;
28343;SDS011;15597;50.914;6.638;2023-10-31T13:05:51;3.85;;;0.90;;
28343;SDS011;15597;50.914;6.638;2023-10-31T13:08:16;4.43;;;1.02;;
28343;SDS011;15597;50.914;6.638;2023-10-31T13:10:42;5.63;;;1.30;;
28343;SDS011;15597;50.914;6.638;2023-10-31T13:13:08;7.60;;;1.10;;
28343;SDS011;15597;50.914;6.638;2023-10-31T13:15:35;2.67;;;0.65;;
28343;SDS011;15597;50.914;6.638;2023-10-31T13:18:02;3.63;;;0.85;;
28343;SDS011;15597;50.914;6.638;2023-10-31T13:20:27;6.10;;;1.25;;
28343;SDS011;15597;50.914;6.638;2023-10-31T13:22:54;3.90;;;1.00;;
28343;SDS011;15597;50.914;6.638;2023-10-31T13:25:20;4.28;;;1.00;;
28343;SDS011;15597;50.914;6.638;2023-10-31T13:27:46;4.35;;;0.90;;
28343;SDS011;15597;50.914;6.638;2023-10-31T13:30:16;3.53;;;1.40;;
28343;SDS011;15597;50.914;6.638;2023-10-31T13:32:43;3.85;;;0.90;;
28343;SDS011;15597;50.914;6.638;2023-10-31T13:35:09;4.05;;;0.90;;
28343;SDS011;15597;50.914;6.638;2023-10-31T13:37:35;2.78;;;0.80;;
28343;SDS011;15597;50.914;6.638;2023-10-31T13:40:02;3.95;;;1.05;;
28343;SDS011;15597;50.914;6.638;2023-10-31T13:42:28;2.63;;;0.70;;
28343;SDS011;15597;50.914;6.638;2023-10-31T13:44:54;6.13;;;1.25;;
28343;SDS011;15597;50.914;6.638;2023-10-31T13:47:19;3.00;;;0.85;;
28343;SDS011;15597;50.914;6.638;2023-10-31T13:49:45;3.95;;;0.80;;
28343;SDS011;15597;50.914;6.638;2023-10-31T13:52:11;4.13;;;0.82;;
28343;SDS011;15597;50.914;6.638;2023-10-31T13:54:37;6.47;;;1.13;;
28343;SDS011;15597;50.914;6.638;2023-10-31T13:57:02;2.58;;;1.00;;
28343;SDS011;15597;50.914;6.638;2023-10-31T13:59:28;2.15;;;0.73;;
28343;SDS011;15597;50.914;6.638;2023-10-31T14:01:54;5.57;;;0.85;;
28343;SDS011;15597;50.914;6.638;2023-10-31T14:04:20;4.25;;;0.90;;
28343;SDS011;15597;50.914;6.638;2023-10-31T14:06:46;5.22;;;0.95;;
28343;SDS011;15597;50.914;6.638;2023-10-31T14:09:11;2.10;;;0.73;;
28343;SDS011;15597;50.914;6.638;2023-10-31T14:11:37;3.03;;;0.82;;
28343;SDS011;15597;50.914;6.638;2023-10-31T14:14:03;1.98;;;0.68;;
28343;SDS011;15597;50.914;6.638;2023-10-31T14:16:32;3.38;;;0.90;;
28343;SDS011;15597;50.914;6.638;2023-10-31T14:18:59;3.55;;;0.88;;
28343;SDS011;15597;50.914;6.638;2023-10-31T14:21:24;2.17;;;0.80;;
28343;SDS011;15597;50.914;6.638;2023-10-31T14:23:51;3.78;;;0.90;;
28343;SDS011;15597;50.914;6.638;2023-10-31T14:26:21;5.50;;;0.90;;
28343;SDS011;15597;50.914;6.638;2023-10-31T14:28:47;3.47;;;1.00;;
28343;SDS011;15597;50.914;6.638;2023-10-31T14:31:14;2.78;;;0.88;;
28343;SDS011;15597;50.914;6.638;2023-10-31T14:33:40;3.70;;;0.95;;
28343;SDS011;15597;50.914;6.638;2023-10-31T14:36:06;6.03;;;1.48;;
28343;SDS011;15597;50.914;6.638;2023-10-31T14:38:34;9.45;;;1.40;;
28343;SDS011;15597;50.914;6.638;2023-10-31T14:40:59;6.60;;;1.40;;
28343;SDS011;15597;50.914;6.638;2023-10-31T14:43:25;7.40;;;1.75;;
28343;SDS011;15597;50.914;6.638;2023-10-31T14:45:50;3.60;;;1.08;;
28343;SDS011;15597;50.914;6.638;2023-10-31T14:48:16;8.40;;;2.33;;
28343;SDS011;15597;50.914;6.638;2023-10-31T14:50:41;4.07;;;1.13;;